Map

Track Data

SID SEASON NUMBER BASIN SUBBASIN NAME ISO_TIME NATURE LAT LON WMO_WIND WMO_PRES WMO_AGENCY TRACK_TYPE DIST2LAND LANDFALL IFLAG USA_AGENCY USA_ATCF_ID USA_LAT USA_LON USA_RECORD USA_STATUS USA_WIND USA_PRES USA_SSHS USA_R34_NE USA_R34_SE USA_R34_SW USA_R34_NW USA_R50_NE USA_R50_SE USA_R50_SW USA_R50_NW USA_R64_NE USA_R64_SE USA_R64_SW USA_R64_NW USA_POCI USA_ROCI USA_RMW USA_EYE TOKYO_LAT TOKYO_LON TOKYO_GRADE TOKYO_WIND TOKYO_PRES TOKYO_R50_DIR TOKYO_R50_LONG TOKYO_R50_SHORT TOKYO_R30_DIR TOKYO_R30_LONG TOKYO_R30_SHORT TOKYO_LAND CMA_LAT CMA_LON CMA_CAT CMA_WIND CMA_PRES HKO_LAT HKO_LON HKO_CAT HKO_WIND HKO_PRES NEWDELHI_LAT NEWDELHI_LON NEWDELHI_GRADE NEWDELHI_WIND NEWDELHI_PRES NEWDELHI_CI NEWDELHI_DP NEWDELHI_POCI REUNION_LAT REUNION_LON REUNION_TYPE REUNION_WIND REUNION_PRES REUNION_TNUM REUNION_CI REUNION_RMW REUNION_R34_NE REUNION_R34_SE REUNION_R34_SW REUNION_R34_NW REUNION_R50_NE REUNION_R50_SE REUNION_R50_SW REUNION_R50_NW REUNION_R64_NE REUNION_R64_SE REUNION_R64_SW REUNION_R64_NW BOM_LAT BOM_LON BOM_TYPE BOM_WIND BOM_PRES BOM_TNUM BOM_CI BOM_RMW BOM_R34_NE BOM_R34_SE BOM_R34_SW BOM_R34_NW BOM_R50_NE BOM_R50_SE BOM_R50_SW BOM_R50_NW BOM_R64_NE BOM_R64_SE BOM_R64_SW BOM_R64_NW BOM_ROCI BOM_POCI BOM_EYE BOM_POS_METHOD BOM_PRES_METHOD NADI_LAT NADI_LON NADI_CAT NADI_WIND NADI_PRES WELLINGTON_LAT WELLINGTON_LON WELLINGTON_WIND WELLINGTON_PRES DS824_LAT DS824_LON DS824_STAGE DS824_WIND DS824_PRES TD9636_LAT TD9636_LON TD9636_STAGE TD9636_WIND TD9636_PRES TD9635_LAT TD9635_LON TD9635_WIND TD9635_PRES TD9635_ROCI NEUMANN_LAT NEUMANN_LON NEUMANN_CLASS NEUMANN_WIND NEUMANN_PRES MLC_LAT MLC_LON MLC_CLASS MLC_WIND MLC_PRES USA_GUST BOM_GUST BOM_GUST_PER REUNION_GUST REUNION_GUST_PER USA_SEAHGT USA_SEARAD_NE USA_SEARAD_SE USA_SEARAD_SW USA_SEARAD_NW STORM_SPEED STORM_DIR
1930061S14150 1930 16 SP EA NOT_NAMED 1930-03-01 23:00:00 NR -13.5500 149.750 bom main 316 327 ______O___O___ -1 -13.7000 149.800 -13.4000 149.700 7 3 0
1930061S14150 1930 16 SP EA NOT_NAMED 1930-03-02 00:00:00 TS -13.5905 149.722 main 329 329 ______P__OP___ -1 -13.6751 149.731 -13.7000 149.800 TC -13.4511 149.674 7 3 247
1930061S14150 1930 16 SP EA NOT_NAMED 1930-03-02 03:00:00 TS -13.6249 149.567 main 331 331 ______P__PP___ -1 -13.6064 149.527 -13.6842 149.589 TC -13.6040 149.592 7 3 256
1930061S14150 1930 16 SP EA NOT_NAMED 1930-03-02 06:00:00 TS -13.6640 149.411 main 347 347 ______P__PP___ -1 -13.5594 149.337 -13.6817 149.390 TC -13.7552 149.500 7 3 253
1930061S14150 1930 16 SP EA NOT_NAMED 1930-03-02 09:00:00 TS -13.7200 149.258 main 349 349 ______P__PP___ -1 -13.5507 149.170 -13.7059 149.215 TC -13.9034 149.389 7 3 246
1930061S14150 1930 16 SP EA NOT_NAMED 1930-03-02 11:00:00 TS -13.7726 149.165 main 363 363 ______P__PO___ -1 -13.5743 149.077 -13.7435 149.117 TC -14.0000 149.300 7 3 238
1930061S14150 1930 16 SP EA NOT_NAMED 1930-03-02 12:00:00 TS -13.8048 149.121 main 367 367 ______P__PP___ -1 -13.5967 149.037 -13.7703 149.075 TC -14.0476 149.251 7 3 223
1930061S14150 1930 16 SP EA NOT_NAMED 1930-03-02 15:00:00 TS -13.9316 149.010 main 381 381 ______P__PP___ -1 -13.7139 148.948 -13.8884 148.981 TC -14.1927 149.100 7 4 209
1930061S14150 1930 16 SP EA NOT_NAMED 1930-03-02 18:00:00 TS -14.1154 148.947 main 399 392 ______P__PP___ -1 -13.9188 148.912 -14.0737 148.946 TC -14.3536 148.984 7 4 186
1930061S14150 1930 16 SP EA NOT_NAMED 1930-03-02 21:00:00 TS -14.3713 148.958 main 399 394 ______P__PP___ -1 -14.2279 148.940 -14.3398 148.982 TC -14.5462 148.951 7 6 171
1930061S14150 1930 16 SP EA NOT_NAMED 1930-03-02 23:00:00 TS -14.5895 149.017 1000 bom main 394 392 ______O__PO___ -1 -14.5000 149.000 1000 4 -14.5686 149.051 TC -14.7000 149.000 7 7 164
1930061S14150 1930 16 SP EA NOT_NAMED 1930-03-03 00:00:00 TS -14.7171 149.066 main 403 399 ______P__OP___ -1 -14.6568 149.043 -14.7000 149.100 TC 30 1000 -14.7944 149.055 7 9 155
1930061S14150 1930 16 SP EA NOT_NAMED 1930-03-03 03:00:00 TS -15.1435 149.282 main 419 414 ______P__PP___ -1 -15.1692 149.228 -15.1482 149.309 TC -15.1132 149.310 7 10 151
1930061S14150 1930 16 SP EA NOT_NAMED 1930-03-03 05:00:00 TS -15.4327 149.479 bom main 424 419 ______O__PP___ -1 -15.5000 149.400 -15.4554 149.495 TC -15.3426 149.542 7 10 145
1930061S14150 1930 16 SP EA NOT_NAMED 1930-03-03 06:00:00 TS -15.5660 149.589 main 424 424 ______P__OP___ -1 -15.6395 149.494 -15.6000 149.600 TC -15.4586 149.671 7 10 136
1930061S14150 1930 16 SP EA NOT_NAMED 1930-03-03 09:00:00 TS -15.9220 149.965 main 448 444 ______P__PP___ -1 -15.9983 149.837 -15.9716 149.961 TC -15.7962 150.099 7 10 131
1930061S14150 1930 16 SP EA NOT_NAMED 1930-03-03 11:00:00 TS -16.1218 150.248 main 460 460 ______P__PO___ -1 -16.1936 150.110 -16.1718 150.234 TC -16.0000 150.400 7 10 125
1930061S14150 1930 16 SP EA NOT_NAMED 1930-03-03 12:00:00 TS -16.2087 150.390 main 477 474 ______P__PP___ -1 -16.2797 150.257 -16.2594 150.379 TC -16.0871 150.534 7 10 118
1930061S14150 1930 16 SP EA NOT_NAMED 1930-03-03 15:00:00 TS -16.4337 150.847 main 481 478 ______P__PP___ -1 -16.4991 150.739 -16.4797 150.843 TC -16.3223 150.958 7 10 114
1930061S14150 1930 16 SP EA NOT_NAMED 1930-03-03 18:00:00 TS -16.6148 151.339 main 490 490 ______P__PP___ -1 -16.6721 151.266 -16.6489 151.343 TC -16.5234 151.408 7 10 109
1930061S14150 1930 16 SP EA NOT_NAMED 1930-03-03 21:00:00 TS -16.7632 151.854 main 509 509 ______P__PP___ -1 -16.8144 151.822 -16.7835 151.865 TC -16.6967 151.878 7 10 106
1930061S14150 1930 16 SP EA NOT_NAMED 1930-03-03 23:00:00 TS -16.8524 152.204 bom main 522 522 ______O__PO___ -1 -16.9000 152.200 -16.8621 152.221 TC -16.8000 152.200 7 10 105
1930061S14150 1930 16 SP EA NOT_NAMED 1930-03-04 00:00:00 TS -16.8981 152.376 main 537 537 ______P__OP___ -1 -16.9417 152.390 -16.9000 152.400 TC -16.8540 152.355 7 10 105
1930061S14150 1930 16 SP EA NOT_NAMED 1930-03-04 03:00:00 NR -17.0324 152.895 main 568 568 ______P___P___ -1 -17.0642 152.960 TC -17.0006 152.830 7 10 104
1930061S14150 1930 16 SP EA NOT_NAMED 1930-03-04 06:00:00 NR -17.1549 153.427 main 595 595 ______P___P___ -1 -17.1830 153.533 TC -17.1267 153.322 7 11 103
1930061S14150 1930 16 SP EA NOT_NAMED 1930-03-04 09:00:00 NR -17.2669 153.973 main 642 642 ______P___P___ -1 -17.2983 154.106 TC -17.2355 153.839 7 11 102
1930061S14150 1930 16 SP EA NOT_NAMED 1930-03-04 11:00:00 NR -17.3367 154.345 main 669 669 ______P___O___ -1 -17.3735 154.490 TC -17.3000 154.200 7 11 101
1930061S14150 1930 16 SP EA NOT_NAMED 1930-03-04 12:00:00 NR -17.3704 154.534 main 681 681 ______P___P___ -1 -17.4105 154.682 TC -17.3302 154.386 7 11 100
1930061S14150 1930 16 SP EA NOT_NAMED 1930-03-04 15:00:00 NR -17.4668 155.112 main 715 715 ______P___P___ -1 -17.5199 155.258 TC -17.4137 154.965 7 11 100
1930061S14150 1930 16 SP EA NOT_NAMED 1930-03-04 18:00:00 NR -17.5575 155.702 main 748 748 ______P___P___ -1 -17.6267 155.836 -17.4883 155.567 7 11 99
1930061S14150 1930 16 SP EA NOT_NAMED 1930-03-04 21:00:00 NR -17.6440 156.299 main 793 793 ______P___P___ -1 -17.7314 156.414 -17.5567 156.185 7 12 99
1930061S14150 1930 16 SP EA NOT_NAMED 1930-03-04 23:00:00 NR -17.7000 156.700 bom main 816 ______O___O___ -1 -17.8000 156.800 -17.6000 156.600 7 12 98

Digital Typhoon Data and Search

About IBTrACS Database

This database is a web-friendly format of International Best Track Archive for Climate Stewardship (IBTrACS), a global best track data archive curated by NOAA dating back to 1842.

Updated: 2021-12-03